createdAt,value
2018-09-27T00:00:01.246Z,1.00
2018-09-27T00:02:29.559Z,0.90
2018-09-27T00:04:57.939Z,0.87
2018-09-27T00:07:26.299Z,0.87
2018-09-27T00:09:54.563Z,1.00
2018-09-27T00:12:22.885Z,0.80
2018-09-27T00:14:51.220Z,0.77
2018-09-27T00:17:19.513Z,1.00
2018-09-27T00:19:47.759Z,0.80
2018-09-27T00:22:21.081Z,0.80
2018-09-27T00:24:49.332Z,0.67
2018-09-27T00:27:19.799Z,0.80
2018-09-27T00:29:48.146Z,0.70
2018-09-27T00:32:16.467Z,1.03
2018-09-27T00:34:44.807Z,0.80
2018-09-27T00:37:13.082Z,0.80
2018-09-27T00:39:41.358Z,0.97
2018-09-27T00:42:09.673Z,1.00
2018-09-27T00:44:38.041Z,0.90
2018-09-27T00:47:06.386Z,1.10
2018-09-27T00:49:34.697Z,1.03
2018-09-27T00:52:04.122Z,1.03
2018-09-27T00:54:33.568Z,0.90
2018-09-27T00:57:07.290Z,1.23
2018-09-27T00:59:35.566Z,0.90
2018-09-27T01:02:04.841Z,0.90
2018-09-27T01:04:33.180Z,1.43
2018-09-27T01:07:03.446Z,0.80
2018-09-27T01:09:31.808Z,1.37
2018-09-27T01:12:00.119Z,0.90
2018-09-27T01:14:28.410Z,1.30
2018-09-27T01:16:56.679Z,1.33
2018-09-27T01:19:24.984Z,1.17
2018-09-27T01:21:53.337Z,1.20
2018-09-27T01:24:21.617Z,0.90
2018-09-27T01:26:49.982Z,1.17
2018-09-27T01:29:18.306Z,1.40
2018-09-27T01:31:47.508Z,1.20
2018-09-27T01:34:15.875Z,1.30
2018-09-27T01:36:45.146Z,1.10
2018-09-27T01:39:13.440Z,1.17
2018-09-27T01:41:41.793Z,1.27
2018-09-27T01:44:10.126Z,1.33
2018-09-27T01:46:38.456Z,1.37
2018-09-27T01:49:06.773Z,1.27
2018-09-27T01:51:35.138Z,1.23
2018-09-27T01:54:03.553Z,1.40
2018-09-27T01:56:31.907Z,0.97
2018-09-27T01:59:00.279Z,1.50
2018-09-27T02:01:28.608Z,1.20
2018-09-27T02:03:56.920Z,1.37
2018-09-27T02:06:25.266Z,1.40
2018-09-27T02:08:53.583Z,1.17
2018-09-27T02:11:21.849Z,1.03
2018-09-27T02:13:50.165Z,1.20
2018-09-27T02:16:18.518Z,1.40
2018-09-27T02:18:46.916Z,1.43
2018-09-27T02:21:15.290Z,1.03
2018-09-27T02:23:43.704Z,1.67
2018-09-27T02:26:12.022Z,1.33
2018-09-27T02:28:40.432Z,1.43
2018-09-27T02:31:08.904Z,1.30
2018-09-27T02:33:37.283Z,1.60
2018-09-27T02:36:05.320Z,1.67
2018-09-27T02:38:33.726Z,1.40
2018-09-27T02:41:01.967Z,1.40
2018-09-27T02:43:30.279Z,1.50
2018-09-27T02:45:58.545Z,1.40
2018-09-27T02:52:02.034Z,1.27
2018-09-27T02:54:31.362Z,1.63
2018-09-27T02:56:59.638Z,1.60
2018-09-27T02:59:28.024Z,1.10
2018-09-27T03:01:56.311Z,1.33
2018-09-27T03:04:24.608Z,1.30
2018-09-27T03:06:52.967Z,1.50
2018-09-27T03:16:18.256Z,1.37
2018-09-27T03:18:46.638Z,2.00
2018-09-27T03:21:14.969Z,1.77
2018-09-27T03:23:43.284Z,2.13
2018-09-27T03:26:11.620Z,2.33
2018-09-27T03:28:40.041Z,2.10
2018-09-27T03:31:08.382Z,1.70
2018-09-27T03:33:36.697Z,2.10
2018-09-27T03:36:05.058Z,1.73
2018-09-27T03:38:33.343Z,1.87
2018-09-27T03:41:01.713Z,2.20
2018-09-27T03:43:29.978Z,1.97
2018-09-27T03:45:58.290Z,1.83
2018-09-27T03:48:26.641Z,1.53
2018-09-27T03:50:54.931Z,1.80
2018-09-27T03:53:23.360Z,1.83
2018-09-27T03:55:51.693Z,1.77
2018-09-27T03:58:20.049Z,1.57
2018-09-27T04:00:48.378Z,2.03
2018-09-27T04:03:16.756Z,1.90
2018-09-27T04:05:45.128Z,1.80
2018-09-27T04:08:13.478Z,1.80
2018-09-27T04:10:41.801Z,1.77
2018-09-27T04:13:10.180Z,1.50
2018-09-27T04:15:38.612Z,1.70
2018-09-27T04:18:06.931Z,1.60
2018-09-27T04:20:39.764Z,1.87
2018-09-27T04:23:08.084Z,2.13
2018-09-27T04:25:36.465Z,2.23
2018-09-27T04:28:04.853Z,1.63
2018-09-27T04:30:33.210Z,1.70
2018-09-27T04:33:01.557Z,2.03
2018-09-27T04:35:29.894Z,1.83
2018-09-27T04:37:58.248Z,1.37
2018-09-27T04:40:26.662Z,1.60
2018-09-27T04:42:55.009Z,1.80
2018-09-27T04:45:23.368Z,2.03
2018-09-27T04:47:52.673Z,1.40
2018-09-27T04:50:21.062Z,1.67
2018-09-27T04:52:49.433Z,2.00
2018-09-27T04:55:17.834Z,1.97
2018-09-27T04:57:46.193Z,1.67
2018-09-27T05:00:14.595Z,1.90
2018-09-27T05:02:43.451Z,1.53
2018-09-27T05:05:11.754Z,1.40
2018-09-27T05:07:40.154Z,2.30
2018-09-27T05:10:08.569Z,2.23
2018-09-27T05:12:36.885Z,2.10
2018-09-27T05:15:05.260Z,1.60
2018-09-27T05:17:33.662Z,1.27
2018-09-27T05:20:02.959Z,1.73
2018-09-27T05:22:35.228Z,1.57
2018-09-27T05:25:03.686Z,1.50
2018-09-27T05:27:32.130Z,1.90
2018-09-27T05:30:00.431Z,1.80
2018-09-27T05:32:29.746Z,2.33
2018-09-27T05:34:58.106Z,1.70
2018-09-27T05:37:26.404Z,1.80
2018-09-27T05:39:54.781Z,1.47
2018-09-27T05:42:23.089Z,1.63
2018-09-27T05:44:51.500Z,2.17
2018-09-27T05:47:19.846Z,2.10
2018-09-27T05:49:48.243Z,1.60
2018-09-27T05:52:16.645Z,1.50
2018-09-27T05:54:44.957Z,1.20
2018-09-27T05:57:13.230Z,1.60
2018-09-27T05:59:41.540Z,1.50
2018-09-27T06:02:10.255Z,1.47
2018-09-27T06:04:38.636Z,1.60
2018-09-27T06:07:06.977Z,1.30
2018-09-27T06:09:35.361Z,1.80
2018-09-27T06:12:03.789Z,1.53
2018-09-27T06:14:32.104Z,1.77
2018-09-27T06:17:00.598Z,1.23
2018-09-27T06:19:28.978Z,1.80
2018-09-27T06:21:57.329Z,2.10
2018-09-27T06:24:25.617Z,1.63
2018-09-27T06:26:54.003Z,2.00
2018-09-27T06:29:23.295Z,1.90
2018-09-27T06:31:51.699Z,1.70
2018-09-27T06:34:20.042Z,1.17
2018-09-27T06:36:48.327Z,1.67
2018-09-27T06:39:16.731Z,1.53
2018-09-27T06:41:45.157Z,1.90
2018-09-27T06:44:13.470Z,1.80
2018-09-27T06:46:41.852Z,1.70
2018-09-27T06:49:10.297Z,1.63
2018-09-27T06:51:39.642Z,1.20
2018-09-27T06:54:08.058Z,1.23
2018-09-27T06:56:36.562Z,1.47
2018-09-27T06:59:04.804Z,1.80
2018-09-27T07:01:33.210Z,1.30
2018-09-27T07:04:01.511Z,1.20
2018-09-27T07:06:29.872Z,1.97
2018-09-27T07:08:58.264Z,1.83
2018-09-27T07:11:26.626Z,1.43
2018-09-27T07:13:54.948Z,1.60
2018-09-27T07:16:23.381Z,1.80
2018-09-27T07:18:51.832Z,2.17
2018-09-27T07:21:20.090Z,1.50
2018-09-27T07:23:48.535Z,2.07
2018-09-27T07:26:16.883Z,1.40
2018-09-27T07:28:45.253Z,1.50
2018-09-27T07:31:13.697Z,2.00
2018-09-27T07:33:42.108Z,1.47
2018-09-27T07:36:10.603Z,1.67
2018-09-27T07:38:39.050Z,1.60
2018-09-27T07:41:07.338Z,1.40
2018-09-27T07:43:35.783Z,1.43
2018-09-27T07:46:06.168Z,2.10
2018-09-27T07:48:35.607Z,1.63
2018-09-27T07:51:03.945Z,1.10
2018-09-27T07:53:32.334Z,1.40
2018-09-27T07:56:01.730Z,1.50
2018-09-27T07:58:30.102Z,1.53
2018-09-27T08:00:58.471Z,2.10
2018-09-27T08:03:26.869Z,1.60
2018-09-27T08:05:55.240Z,1.63
2018-09-27T08:08:23.674Z,1.80
2018-09-27T08:10:52.011Z,1.73
2018-09-27T08:13:20.392Z,1.57
2018-09-27T08:15:48.738Z,2.03
2018-09-27T08:18:17.117Z,1.60
2018-09-27T08:20:45.553Z,1.23
2018-09-27T08:23:13.899Z,1.80
2018-09-27T08:25:42.284Z,1.93
2018-09-27T08:28:10.678Z,1.72
2018-09-27T08:30:39.069Z,1.50
2018-09-27T08:33:07.432Z,1.52
2018-09-27T08:35:35.784Z,1.70
2018-09-27T08:38:04.171Z,1.90
2018-09-27T08:40:33.609Z,1.27
2018-09-27T08:43:01.942Z,1.75
2018-09-27T08:45:31.439Z,1.70
2018-09-27T08:47:59.647Z,1.70
2018-09-27T08:50:27.988Z,1.80
2018-09-27T08:52:56.369Z,1.10
2018-09-27T08:55:24.792Z,1.42
2018-09-27T08:57:53.131Z,1.12
2018-09-27T09:00:22.406Z,1.55
2018-09-27T09:02:52.731Z,1.40
2018-09-27T09:05:21.016Z,1.32
2018-09-27T09:07:49.292Z,1.90
2018-09-27T09:10:17.696Z,1.20
2018-09-27T09:12:46.129Z,1.90
2018-09-27T09:15:14.455Z,1.52
2018-09-27T09:17:42.839Z,0.90
2018-09-27T09:20:11.226Z,1.55
2018-09-27T09:22:39.572Z,1.05
2018-09-27T09:25:07.852Z,1.52
2018-09-27T09:27:36.253Z,0.90
2018-09-27T09:30:04.641Z,0.62
2018-09-27T09:32:33.893Z,1.10
2018-09-27T09:35:02.171Z,1.30
2018-09-27T09:37:31.455Z,1.07
2018-09-27T09:40:00.817Z,0.88
2018-09-27T09:42:29.169Z,1.15
2018-09-27T09:44:58.482Z,1.30
2018-09-27T09:47:30.533Z,0.72
2018-09-27T09:49:58.967Z,1.27
2018-09-27T09:52:27.353Z,1.00
2018-09-27T09:54:55.822Z,1.25
2018-09-27T09:57:24.165Z,0.90
2018-09-27T09:59:52.573Z,0.90
2018-09-27T10:02:20.972Z,0.93
2018-09-27T10:04:50.226Z,0.82
2018-09-27T10:07:18.583Z,1.27
2018-09-27T10:09:46.905Z,0.80
2018-09-27T10:12:15.268Z,0.95
2018-09-27T10:14:43.701Z,0.80
2018-09-27T10:17:12.036Z,0.57
2018-09-27T10:19:40.415Z,1.02
2018-09-27T10:22:10.781Z,1.00
2018-09-27T10:24:47.501Z,1.02
2018-09-27T10:27:16.827Z,0.62
2018-09-27T10:29:45.210Z,0.70
2018-09-27T10:32:13.556Z,0.50
2018-09-27T10:34:42.149Z,0.80
2018-09-27T10:37:10.583Z,1.20
2018-09-27T10:39:38.909Z,0.30
2018-09-27T10:42:07.256Z,0.23
2018-09-27T10:44:35.550Z,0.57
2018-09-27T10:47:04.356Z,0.42
2018-09-27T10:49:32.730Z,0.47
2018-09-27T10:52:01.083Z,0.50
2018-09-27T10:54:29.367Z,0.62
2018-09-27T10:56:57.650Z,0.35
2018-09-27T10:59:26.055Z,0.40
2018-09-27T11:01:54.419Z,0.50
2018-09-27T11:04:22.840Z,0.40
2018-09-27T11:06:51.188Z,0.40
2018-09-27T11:09:19.567Z,0.40
2018-09-27T11:11:47.933Z,0.40
2018-09-27T11:14:16.402Z,0.53
2018-09-27T11:16:44.726Z,0.93
2018-09-27T11:19:13.085Z,0.60
2018-09-27T11:21:41.512Z,0.70
2018-09-27T11:24:09.884Z,0.57
2018-09-27T11:26:38.213Z,0.50
2018-09-27T11:29:12.016Z,0.60
2018-09-27T11:31:45.683Z,0.45
2018-09-27T11:34:14.447Z,0.65
2018-09-27T11:36:42.784Z,0.57
2018-09-27T11:39:11.457Z,0.35
2018-09-27T11:41:39.789Z,0.50
2018-09-27T11:44:08.498Z,0.40
2018-09-27T11:46:36.812Z,0.37
2018-09-27T11:49:05.147Z,0.33
2018-09-27T11:51:33.557Z,0.62
2018-09-27T11:54:02.902Z,0.50
2018-09-27T11:56:31.291Z,0.30
2018-09-27T11:59:01.588Z,0.30
2018-09-27T12:01:30.031Z,0.30
2018-09-27T12:03:58.348Z,0.40
2018-09-27T12:06:26.853Z,0.47
2018-09-27T12:08:55.174Z,0.60
2018-09-27T12:11:23.480Z,0.30
2018-09-27T12:13:51.858Z,0.50
2018-09-27T12:16:20.288Z,0.68
2018-09-27T12:18:48.599Z,0.33
2018-09-27T12:21:16.899Z,0.55
2018-09-27T12:23:45.319Z,0.40
2018-09-27T12:26:13.673Z,0.40
2018-09-27T12:28:42.086Z,0.55
2018-09-27T12:31:10.530Z,0.60
2018-09-27T12:33:38.798Z,0.70
2018-09-27T12:36:07.271Z,0.53
2018-09-27T12:38:35.797Z,0.75
2018-09-27T12:41:04.160Z,0.78
2018-09-27T12:43:32.509Z,0.80
2018-09-27T12:46:04.936Z,0.42
2018-09-27T12:48:33.296Z,0.50
2018-09-27T12:51:01.590Z,0.53
2018-09-27T12:53:29.942Z,0.70
2018-09-27T12:55:58.370Z,0.40
2018-09-27T12:58:26.691Z,0.82
2018-09-27T13:00:56.392Z,0.50
2018-09-27T13:03:24.841Z,0.50
2018-09-27T13:05:53.188Z,0.62
2018-09-27T13:08:21.541Z,0.50
2018-09-27T13:10:49.929Z,0.53
2018-09-27T13:13:19.284Z,0.50
2018-09-27T13:15:47.627Z,0.80
2018-09-27T13:18:16.009Z,0.70
2018-09-27T13:20:44.401Z,0.80
2018-09-27T13:23:12.769Z,0.60
2018-09-27T13:25:41.222Z,0.73
2018-09-27T13:28:09.520Z,0.68
2018-09-27T13:30:37.857Z,0.75
2018-09-27T13:33:06.395Z,0.95
2018-09-27T13:35:34.735Z,0.90
2018-09-27T13:38:03.112Z,0.75
2018-09-27T13:40:31.556Z,0.72
2018-09-27T13:42:59.888Z,0.83
2018-09-27T13:45:28.230Z,0.62
2018-09-27T13:47:56.589Z,0.70
2018-09-27T13:50:24.929Z,0.80
2018-09-27T13:52:53.419Z,1.02
2018-09-27T13:55:21.845Z,0.60
2018-09-27T13:57:50.183Z,0.75
2018-09-27T14:00:18.518Z,0.70
2018-09-27T14:02:47.844Z,0.70
2018-09-27T14:05:16.179Z,0.78
2018-09-27T14:07:44.498Z,0.70
2018-09-27T14:10:12.900Z,0.70
2018-09-27T14:12:41.356Z,0.90
2018-09-27T14:15:09.739Z,0.80
2018-09-27T14:17:38.149Z,1.70
2018-09-27T14:20:07.547Z,1.12
2018-09-27T14:22:35.897Z,0.70
2018-09-27T14:25:04.279Z,0.90
2018-09-27T14:27:32.946Z,0.70
2018-09-27T14:30:01.344Z,0.73
2018-09-27T14:32:29.732Z,1.00
2018-09-27T14:34:58.071Z,0.70
2018-09-27T14:37:26.385Z,0.80
2018-09-27T14:41:23.999Z,1.02
2018-09-27T14:43:52.324Z,0.60
2018-09-27T14:46:20.762Z,1.27
2018-09-27T14:48:49.088Z,0.82
2018-09-27T14:51:17.529Z,0.78
2018-09-27T14:53:45.887Z,0.80
2018-09-27T14:56:14.237Z,0.80
2018-09-27T14:58:42.847Z,1.00
2018-09-27T15:01:11.466Z,1.03
2018-09-27T15:03:40.112Z,0.80
2018-09-27T15:06:13.251Z,0.90
2018-09-27T15:08:41.657Z,0.70
2018-09-27T15:11:11.022Z,1.02
2018-09-27T15:13:39.515Z,1.20
2018-09-27T15:16:11.699Z,0.80
2018-09-27T15:18:40.221Z,1.20
2018-09-27T15:21:08.535Z,1.00
2018-09-27T15:23:36.886Z,0.88
2018-09-27T15:26:05.261Z,1.05
2018-09-27T15:28:33.588Z,0.67
2018-09-27T15:31:02.032Z,1.10
2018-09-27T15:33:30.436Z,0.90
2018-09-27T15:35:58.768Z,0.88
2018-09-27T15:38:27.253Z,0.95
2018-09-27T15:40:55.589Z,1.10
2018-09-27T15:43:23.911Z,1.00
2018-09-27T15:45:52.243Z,1.00
2018-09-27T15:48:20.552Z,1.07
2018-09-27T15:50:48.903Z,0.93
2018-09-27T15:53:17.201Z,0.90
2018-09-27T15:55:46.505Z,1.20
2018-09-27T15:58:14.879Z,1.00
2018-09-27T16:00:43.249Z,1.20
2018-09-27T16:03:11.629Z,0.87
2018-09-27T16:05:40.011Z,1.33
2018-09-27T16:08:08.546Z,1.35
2018-09-27T16:10:44.839Z,0.90
2018-09-27T16:13:13.135Z,0.90
2018-09-27T16:15:41.499Z,1.20
2018-09-27T16:18:09.950Z,1.10
2018-09-27T16:20:39.307Z,1.63
2018-09-27T16:23:08.675Z,1.40
2018-09-27T16:25:37.090Z,1.23
2018-09-27T16:28:05.742Z,1.30
2018-09-27T16:30:34.027Z,1.40
2018-09-27T16:33:02.346Z,1.23
2018-09-27T16:35:30.792Z,1.35
2018-09-27T16:37:59.234Z,1.17
2018-09-27T16:40:27.665Z,1.70
2018-09-27T16:42:55.921Z,1.47
2018-09-27T16:45:24.218Z,1.40
2018-09-27T16:47:52.616Z,1.47
2018-09-27T16:50:20.944Z,1.10
2018-09-27T16:52:49.261Z,1.13
2018-09-27T16:55:17.681Z,1.60
2018-09-27T16:57:46.035Z,1.23
2018-09-27T17:00:14.414Z,1.20
2018-09-27T17:02:42.808Z,1.70
2018-09-27T17:05:11.169Z,1.43
2018-09-27T17:07:39.970Z,1.57
2018-09-27T17:10:08.384Z,1.13
2018-09-27T17:12:36.713Z,1.40
2018-09-27T17:15:05.209Z,1.53
2018-09-27T17:17:33.567Z,1.47
2018-09-27T17:20:01.937Z,1.40
2018-09-27T17:22:30.407Z,1.30
2018-09-27T17:24:58.741Z,1.80
2018-09-27T17:27:27.104Z,1.20
2018-09-27T17:29:55.480Z,1.40
2018-09-27T17:32:23.923Z,1.60
2018-09-27T17:34:52.364Z,1.27
2018-09-27T17:37:20.715Z,1.73
2018-09-27T17:39:50.035Z,1.20
2018-09-27T17:42:18.391Z,1.73
2018-09-27T17:44:46.793Z,1.50
2018-09-27T17:47:15.119Z,1.50
2018-09-27T17:49:43.652Z,1.97
2018-09-27T17:52:11.949Z,2.70
2018-09-27T17:54:40.302Z,4.07
2018-09-27T17:57:08.829Z,3.80
2018-09-27T17:59:37.153Z,3.70
2018-09-27T18:02:05.514Z,3.30
2018-09-27T18:04:33.925Z,3.50
2018-09-27T18:07:02.341Z,3.00
2018-09-27T18:09:30.651Z,2.50
2018-09-27T18:11:59.082Z,2.40
2018-09-27T18:14:27.430Z,1.90
2018-09-27T18:16:55.861Z,2.07
2018-09-27T18:19:25.320Z,2.30
2018-09-27T18:21:53.699Z,1.73
2018-09-27T18:24:23.108Z,1.70
2018-09-27T18:26:51.467Z,2.07
2018-09-27T18:29:19.853Z,1.47
2018-09-27T18:31:48.256Z,1.40
2018-09-27T18:34:16.679Z,1.90
2018-09-27T18:36:45.024Z,2.00
2018-09-27T18:39:13.733Z,1.80
2018-09-27T18:41:42.628Z,1.70
2018-09-27T18:44:11.229Z,1.93
2018-09-27T18:46:39.668Z,1.90
2018-09-27T18:49:08.818Z,2.07
2018-09-27T18:51:37.326Z,2.03
2018-09-27T18:54:05.708Z,1.67
2018-09-27T18:56:34.259Z,2.20
2018-09-27T18:59:05.713Z,2.10
2018-09-27T19:01:34.131Z,2.40
2018-09-27T19:04:02.585Z,2.03
2018-09-27T19:06:31.033Z,1.97
2018-09-27T19:08:59.478Z,2.20
2018-09-27T19:11:27.874Z,1.77
2018-09-27T19:13:56.456Z,1.97
2018-09-27T19:16:24.961Z,1.70
2018-09-27T19:18:53.314Z,1.70
2018-09-27T19:21:21.724Z,1.70
2018-09-27T19:23:50.500Z,2.40
2018-09-27T19:26:19.015Z,1.80
2018-09-27T19:28:48.381Z,1.93
2018-09-27T19:31:17.677Z,1.97
2018-09-27T19:33:51.339Z,1.63
2018-09-27T19:54:46.374Z,2.50
2018-09-27T19:57:15.640Z,1.90
2018-09-27T19:59:47.561Z,1.40
2018-09-27T20:02:16.860Z,1.53
2018-09-27T20:04:46.154Z,2.00
2018-09-27T20:07:17.038Z,1.93
2018-09-27T20:09:45.423Z,2.00
2018-09-27T20:12:13.909Z,1.80
2018-09-27T20:14:42.670Z,2.20
2018-09-27T20:17:15.059Z,2.03
2018-09-27T20:19:43.524Z,1.83
2018-09-27T20:22:12.498Z,2.53
2018-09-27T20:24:41.148Z,2.03
2018-09-27T20:27:10.716Z,2.07
2018-09-27T20:29:39.191Z,2.03
2018-09-27T20:32:07.604Z,2.10
2018-09-27T20:34:36.102Z,1.60
2018-09-27T20:38:33.824Z,2.33
2018-09-27T20:41:02.304Z,2.23
2018-09-27T20:43:30.788Z,2.30
2018-09-27T20:45:59.146Z,1.90
2018-09-27T20:48:27.524Z,1.73
2018-09-27T20:50:55.909Z,2.30
2018-09-27T20:53:24.398Z,2.60
2018-09-27T20:55:52.766Z,2.10
2018-09-27T20:58:21.281Z,2.53
2018-09-27T21:00:49.749Z,2.07
2018-09-27T21:03:18.167Z,2.00
2018-09-27T21:05:46.478Z,2.50
2018-09-27T21:08:14.908Z,2.57
2018-09-27T21:10:43.234Z,2.07
2018-09-27T21:13:11.571Z,2.50
2018-09-27T21:15:41.921Z,2.30
2018-09-27T21:18:10.230Z,2.30
2018-09-27T21:20:38.580Z,2.30
2018-09-27T21:23:06.963Z,2.80
2018-09-27T21:25:35.323Z,2.43
2018-09-27T21:28:03.720Z,2.60
2018-09-27T21:30:32.082Z,2.47
2018-09-27T21:33:00.468Z,3.10
2018-09-27T21:35:29.120Z,3.13
2018-09-27T21:37:57.452Z,2.50
2018-09-27T21:40:25.805Z,2.60
2018-09-27T21:42:54.209Z,2.40
2018-09-27T21:45:22.547Z,2.53
2018-09-27T21:47:50.850Z,2.60
2018-09-27T21:50:19.338Z,2.23
2018-09-27T21:52:47.711Z,2.73
2018-09-27T21:58:46.312Z,3.00
2018-09-27T22:01:14.707Z,2.27
2018-09-27T22:03:43.087Z,2.17
2018-09-27T22:06:11.472Z,2.47
2018-09-27T22:08:39.933Z,2.83
2018-09-27T22:11:08.330Z,2.60
2018-09-27T22:13:36.701Z,2.27
2018-09-27T22:16:05.144Z,2.33
2018-09-27T22:18:33.443Z,2.53
2018-09-27T22:21:01.799Z,2.97
2018-09-27T22:23:30.134Z,2.60
2018-09-27T22:25:58.482Z,2.60
2018-09-27T22:28:27.817Z,2.70
2018-09-27T22:30:56.180Z,2.57
2018-09-27T22:33:24.586Z,2.20
2018-09-27T22:35:54.837Z,2.43
2018-09-27T22:38:23.232Z,2.30
2018-09-27T22:40:51.549Z,2.30
2018-09-27T22:43:20.905Z,2.80
2018-09-27T22:45:49.177Z,2.40
2018-09-27T22:48:17.495Z,2.50
2018-09-27T22:50:45.844Z,2.90
2018-09-27T22:53:14.219Z,2.50
2018-09-27T22:55:42.529Z,2.07
2018-09-27T22:58:12.868Z,2.03
2018-09-27T23:00:41.216Z,2.67
2018-09-27T23:03:11.550Z,2.17
2018-09-27T23:05:39.938Z,2.43
2018-09-27T23:08:08.392Z,2.10
2018-09-27T23:10:36.654Z,1.93
2018-09-27T23:13:04.996Z,2.10
2018-09-27T23:15:33.316Z,2.30
2018-09-27T23:18:01.632Z,2.17
2018-09-27T23:20:29.988Z,2.40
2018-09-27T23:22:58.280Z,2.20
2018-09-27T23:25:26.643Z,2.40
2018-09-27T23:27:55.032Z,2.03
2018-09-27T23:30:23.386Z,1.83
2018-09-27T23:32:52.756Z,1.90
2018-09-27T23:35:21.112Z,1.83
2018-09-27T23:37:49.477Z,2.07
2018-09-27T23:40:17.855Z,2.00
2018-09-27T23:42:46.253Z,1.93
2018-09-27T23:45:14.589Z,2.03
2018-09-27T23:47:42.895Z,2.40
2018-09-27T23:50:11.242Z,2.40
2018-09-27T23:52:39.540Z,2.20
2018-09-27T23:55:07.894Z,2.20
2018-09-27T23:57:37.270Z,2.47
